Poplar Plains, Kentucky
Current Conditions -  °F | °C
As of 10:55 AM on Sunday 23 Nov 2014 (Local Time) from KFGX Reporting Station
Overcast Overcast  
Wind Chill: 58°   Ceiling: 6000
Heat Index: 58°   Visibility: 10mi
Dew Point: 41°   Wind: 5mph
Humidity: 52%   Direction: 190°S
Pressure: 29.95"   Gusts: NA
Location:  38.436°N, 83.6931°W
Report Text: KFGX 231555Z AUTO 19004KT 10SM SCT050 OVC060 15/05 A2995 RMK AO2 T01470048
Loading
Personal Weather Stations






























Interactive Weather Map New forecast layout! Learn more

10-Day Weather Forecast

Advertisements
Track Severe Weather on mobile